Accueil
METAR-TAF:

METAR-TAF

Aéroports :

Aéroport de Karlsruhe-Baden-Baden

Baden-Baden, Allemagne

latitude: 48-46-43N, longitude: 008-04-47E, altitude: 124 m

Observation

Le bulletin a été fait il y a 21 minutes, à 06:20 UTC
Vent 5 kt de sud-ouest
Température 12°C
Humidité 82%
Pression 1033 hPa
Visibilité 10 km ou plus
pas de nuages en-dessous de 1500 mètres et pas de cumulonimbus.

METAR: EDSB 250620Z 22005KT CAVOK 12/09 Q1033

Heure: 08:41 (06:41 UTC)

Prévision

Le bulletin a été fait il y a 1 heure et 41 minutes, à 05:00 UTC
Prévision valable du 25 à 06 UTC au 26 à 06 UTC
Vent 4 kt de sud-ouest
Visibilité 10 km ou plus
pas de nuages en-dessous de 1500 mètres et pas de cumulonimbus.
Evoluant progressivement
du 25 à 08 UTC au 25 à 11 UTC
Vent 5 kt de nord/nord-ouest
Evoluant progressivement
du 25 à 18 UTC au 25 à 21 UTC
Vent 3 kt de direction variable

TAF: EDSB 250500Z 2506/2606 22004KT CAVOK BECMG 2508/2511 34005KT BECMG 2518/2521 VRB03KT

Observations et prévisions météorologiques de plus de 4000 aéroports (messages METAR et TAF).

Les stations disponibles sont représentées par des disques jaunes et rouges sur la carte.

Passer la souris dessus pour voir le nom de la station.

Cliquer dessus pour voir les observations et prévisions météorologiques.

Pour changer de carte: cliquez sur les boutons verts avec une croix noire pour zoomer, sur le bouton vert avec un tiret pour effectuer un zoom arrière, ou sur les flèches vertes pour les cartes adjacentes.


METAR-TAF: